sensor_id;sensor_type;location;lat;lon;timestamp;temperature;humidity
21508;DHT22;10915;54.352;9.074;2022-07-23T00:00:02;16.40;99.90
21508;DHT22;10915;54.352;9.074;2022-07-23T00:02:28;16.40;99.90
21508;DHT22;10915;54.352;9.074;2022-07-23T00:04:54;16.40;99.90
21508;DHT22;10915;54.352;9.074;2022-07-23T00:07:19;16.40;99.90
21508;DHT22;10915;54.352;9.074;2022-07-23T00:09:45;16.40;99.90
21508;DHT22;10915;54.352;9.074;2022-07-23T00:12:11;16.40;99.90
21508;DHT22;10915;54.352;9.074;2022-07-23T00:14:36;16.40;99.90
21508;DHT22;10915;54.352;9.074;2022-07-23T00:17:02;16.40;99.90
21508;DHT22;10915;54.352;9.074;2022-07-23T00:19:28;16.40;99.90
21508;DHT22;10915;54.352;9.074;2022-07-23T00:21:54;16.40;99.90
21508;DHT22;10915;54.352;9.074;2022-07-23T00:24:20;16.40;99.90
21508;DHT22;10915;54.352;9.074;2022-07-23T00:26:45;16.40;99.90
21508;DHT22;10915;54.352;9.074;2022-07-23T00:29:11;16.40;99.90
21508;DHT22;10915;54.352;9.074;2022-07-23T00:31:37;16.40;99.90
21508;DHT22;10915;54.352;9.074;2022-07-23T00:34:02;16.40;99.90
21508;DHT22;10915;54.352;9.074;2022-07-23T00:36:28;16.40;99.90
21508;DHT22;10915;54.352;9.074;2022-07-23T00:38:54;16.40;99.90
21508;DHT22;10915;54.352;9.074;2022-07-23T00:41:20;16.40;99.90
21508;DHT22;10915;54.352;9.074;2022-07-23T00:43:45;16.40;99.90
21508;DHT22;10915;54.352;9.074;2022-07-23T00:46:11;16.40;99.90
21508;DHT22;10915;54.352;9.074;2022-07-23T00:48:37;16.40;99.90
21508;DHT22;10915;54.352;9.074;2022-07-23T00:51:04;16.40;99.90
21508;DHT22;10915;54.352;9.074;2022-07-23T00:53:30;16.40;99.90
21508;DHT22;10915;54.352;9.074;2022-07-23T00:55:57;16.40;99.90
21508;DHT22;10915;54.352;9.074;2022-07-23T00:58:24;16.40;99.90
21508;DHT22;10915;54.352;9.074;2022-07-23T01:00:50;16.40;99.90
21508;DHT22;10915;54.352;9.074;2022-07-23T01:03:15;16.40;99.90
21508;DHT22;10915;54.352;9.074;2022-07-23T01:05:41;16.40;99.90
21508;DHT22;10915;54.352;9.074;2022-07-23T01:08:06;16.40;99.90
21508;DHT22;10915;54.352;9.074;2022-07-23T01:10:32;16.40;99.90
21508;DHT22;10915;54.352;9.074;2022-07-23T01:13:05;16.40;99.90
21508;DHT22;10915;54.352;9.074;2022-07-23T01:15:33;16.40;99.90
21508;DHT22;10915;54.352;9.074;2022-07-23T01:17:58;16.40;99.90
21508;DHT22;10915;54.352;9.074;2022-07-23T01:20:24;16.40;99.90
21508;DHT22;10915;54.352;9.074;2022-07-23T01:22:51;16.40;99.90
21508;DHT22;10915;54.352;9.074;2022-07-23T01:25:17;16.40;99.90
21508;DHT22;10915;54.352;9.074;2022-07-23T01:27:43;16.40;99.90
21508;DHT22;10915;54.352;9.074;2022-07-23T01:30:09;16.40;99.90
21508;DHT22;10915;54.352;9.074;2022-07-23T01:32:35;16.40;99.90
21508;DHT22;10915;54.352;9.074;2022-07-23T01:35:01;16.40;99.90
21508;DHT22;10915;54.352;9.074;2022-07-23T01:37:27;16.40;99.90
21508;DHT22;10915;54.352;9.074;2022-07-23T01:39:52;16.40;99.90
21508;DHT22;10915;54.352;9.074;2022-07-23T01:42:18;16.40;99.90
21508;DHT22;10915;54.352;9.074;2022-07-23T01:44:44;16.30;99.90
21508;DHT22;10915;54.352;9.074;2022-07-23T01:47:09;16.30;99.90
21508;DHT22;10915;54.352;9.074;2022-07-23T01:49:35;16.30;99.90
21508;DHT22;10915;54.352;9.074;2022-07-23T01:52:01;16.30;99.90
21508;DHT22;10915;54.352;9.074;2022-07-23T01:54:28;16.30;99.90
21508;DHT22;10915;54.352;9.074;2022-07-23T01:56:54;16.30;99.90
21508;DHT22;10915;54.352;9.074;2022-07-23T01:59:20;16.30;99.90
21508;DHT22;10915;54.352;9.074;2022-07-23T02:01:45;16.30;99.90
21508;DHT22;10915;54.352;9.074;2022-07-23T02:04:11;16.30;99.90
21508;DHT22;10915;54.352;9.074;2022-07-23T02:06:37;16.30;99.90
21508;DHT22;10915;54.352;9.074;2022-07-23T02:09:02;16.30;99.90
21508;DHT22;10915;54.352;9.074;2022-07-23T02:11:28;16.30;99.90
21508;DHT22;10915;54.352;9.074;2022-07-23T02:13:53;16.30;99.90
21508;DHT22;10915;54.352;9.074;2022-07-23T02:16:19;16.30;99.90
21508;DHT22;10915;54.352;9.074;2022-07-23T02:18:45;16.30;99.90
21508;DHT22;10915;54.352;9.074;2022-07-23T02:21:12;16.30;99.90
21508;DHT22;10915;54.352;9.074;2022-07-23T02:23:38;16.30;99.90
21508;DHT22;10915;54.352;9.074;2022-07-23T02:26:03;16.30;99.90
21508;DHT22;10915;54.352;9.074;2022-07-23T02:28:29;16.30;99.90
21508;DHT22;10915;54.352;9.074;2022-07-23T02:30:55;16.30;99.90
21508;DHT22;10915;54.352;9.074;2022-07-23T02:33:21;16.30;99.90
21508;DHT22;10915;54.352;9.074;2022-07-23T02:35:46;16.30;99.90
21508;DHT22;10915;54.352;9.074;2022-07-23T02:38:12;16.30;99.90
21508;DHT22;10915;54.352;9.074;2022-07-23T02:40:38;16.20;99.90
21508;DHT22;10915;54.352;9.074;2022-07-23T02:43:03;16.20;99.90
21508;DHT22;10915;54.352;9.074;2022-07-23T02:45:29;16.20;99.90
21508;DHT22;10915;54.352;9.074;2022-07-23T02:47:55;16.20;99.90
21508;DHT22;10915;54.352;9.074;2022-07-23T02:50:21;16.20;99.90
21508;DHT22;10915;54.352;9.074;2022-07-23T02:52:47;16.20;99.90
21508;DHT22;10915;54.352;9.074;2022-07-23T02:55:12;16.20;99.90
21508;DHT22;10915;54.352;9.074;2022-07-23T02:57:38;16.20;99.90
21508;DHT22;10915;54.352;9.074;2022-07-23T03:00:05;16.20;99.90
21508;DHT22;10915;54.352;9.074;2022-07-23T03:02:31;16.10;99.90
21508;DHT22;10915;54.352;9.074;2022-07-23T03:04:57;16.20;99.90
21508;DHT22;10915;54.352;9.074;2022-07-23T03:07:23;16.10;99.90
21508;DHT22;10915;54.352;9.074;2022-07-23T03:09:48;16.10;99.90
21508;DHT22;10915;54.352;9.074;2022-07-23T03:12:14;16.10;99.90
21508;DHT22;10915;54.352;9.074;2022-07-23T03:14:40;16.10;99.90
21508;DHT22;10915;54.352;9.074;2022-07-23T03:17:06;16.10;99.90
21508;DHT22;10915;54.352;9.074;2022-07-23T03:19:32;16.10;99.90
21508;DHT22;10915;54.352;9.074;2022-07-23T03:21:57;16.10;99.90
21508;DHT22;10915;54.352;9.074;2022-07-23T03:24:23;16.10;99.90
21508;DHT22;10915;54.352;9.074;2022-07-23T03:27:09;16.10;99.90
21508;DHT22;10915;54.352;9.074;2022-07-23T03:29:34;16.10;99.90
21508;DHT22;10915;54.352;9.074;2022-07-23T03:32:00;16.10;99.90
21508;DHT22;10915;54.352;9.074;2022-07-23T03:34:27;16.10;99.90
21508;DHT22;10915;54.352;9.074;2022-07-23T03:36:52;16.10;99.90
21508;DHT22;10915;54.352;9.074;2022-07-23T03:39:18;16.10;99.90
21508;DHT22;10915;54.352;9.074;2022-07-23T03:41:43;16.10;99.90
21508;DHT22;10915;54.352;9.074;2022-07-23T03:44:09;16.10;99.90
21508;DHT22;10915;54.352;9.074;2022-07-23T03:46:34;16.10;99.90
21508;DHT22;10915;54.352;9.074;2022-07-23T03:49:00;16.10;99.90
21508;DHT22;10915;54.352;9.074;2022-07-23T03:51:26;16.10;99.90
21508;DHT22;10915;54.352;9.074;2022-07-23T03:53:51;16.10;99.90
21508;DHT22;10915;54.352;9.074;2022-07-23T03:56:17;16.10;99.90
21508;DHT22;10915;54.352;9.074;2022-07-23T03:58:42;16.10;99.90
21508;DHT22;10915;54.352;9.074;2022-07-23T04:01:08;16.20;99.90
21508;DHT22;10915;54.352;9.074;2022-07-23T04:03:33;16.20;99.90
21508;DHT22;10915;54.352;9.074;2022-07-23T04:05:59;16.20;99.90
21508;DHT22;10915;54.352;9.074;2022-07-23T04:08:25;16.20;99.90
21508;DHT22;10915;54.352;9.074;2022-07-23T04:10:50;16.30;99.90
21508;DHT22;10915;54.352;9.074;2022-07-23T04:13:17;16.30;99.90
21508;DHT22;10915;54.352;9.074;2022-07-23T04:15:42;16.30;99.90
21508;DHT22;10915;54.352;9.074;2022-07-23T04:18:08;16.40;99.90
21508;DHT22;10915;54.352;9.074;2022-07-23T04:20:34;16.30;99.90
21508;DHT22;10915;54.352;9.074;2022-07-23T04:22:59;16.40;99.90
21508;DHT22;10915;54.352;9.074;2022-07-23T04:25:25;16.40;99.90
21508;DHT22;10915;54.352;9.074;2022-07-23T04:27:50;16.50;99.90
21508;DHT22;10915;54.352;9.074;2022-07-23T04:30:16;16.50;99.90
21508;DHT22;10915;54.352;9.074;2022-07-23T04:32:42;16.60;99.90
21508;DHT22;10915;54.352;9.074;2022-07-23T04:35:08;16.70;99.90
21508;DHT22;10915;54.352;9.074;2022-07-23T04:37:34;16.70;99.90
21508;DHT22;10915;54.352;9.074;2022-07-23T04:39:59;16.80;99.90
21508;DHT22;10915;54.352;9.074;2022-07-23T04:42:25;16.80;99.90
21508;DHT22;10915;54.352;9.074;2022-07-23T04:44:50;16.90;99.90
21508;DHT22;10915;54.352;9.074;2022-07-23T04:47:16;16.90;99.90
21508;DHT22;10915;54.352;9.074;2022-07-23T04:49:42;16.90;99.90
21508;DHT22;10915;54.352;9.074;2022-07-23T04:52:07;16.90;99.90
21508;DHT22;10915;54.352;9.074;2022-07-23T04:54:33;16.90;99.90
21508;DHT22;10915;54.352;9.074;2022-07-23T04:56:58;16.90;99.90
21508;DHT22;10915;54.352;9.074;2022-07-23T04:59:24;16.90;99.90
21508;DHT22;10915;54.352;9.074;2022-07-23T05:01:50;16.90;99.90
21508;DHT22;10915;54.352;9.074;2022-07-23T05:04:15;17.00;99.90
21508;DHT22;10915;54.352;9.074;2022-07-23T05:06:41;17.00;99.90
21508;DHT22;10915;54.352;9.074;2022-07-23T05:09:07;17.00;99.90
21508;DHT22;10915;54.352;9.074;2022-07-23T05:11:32;17.00;99.90
21508;DHT22;10915;54.352;9.074;2022-07-23T05:13:58;17.00;99.90
21508;DHT22;10915;54.352;9.074;2022-07-23T05:16:23;17.00;99.90
21508;DHT22;10915;54.352;9.074;2022-07-23T05:18:49;17.00;99.90
21508;DHT22;10915;54.352;9.074;2022-07-23T05:21:15;17.00;99.90
21508;DHT22;10915;54.352;9.074;2022-07-23T05:23:40;17.00;99.90
21508;DHT22;10915;54.352;9.074;2022-07-23T05:26:06;16.90;99.90
21508;DHT22;10915;54.352;9.074;2022-07-23T05:28:31;16.90;99.90
21508;DHT22;10915;54.352;9.074;2022-07-23T05:30:57;16.90;99.90
21508;DHT22;10915;54.352;9.074;2022-07-23T05:33:23;16.90;99.90
21508;DHT22;10915;54.352;9.074;2022-07-23T05:35:48;16.90;99.90
21508;DHT22;10915;54.352;9.074;2022-07-23T05:38:14;16.90;99.90
21508;DHT22;10915;54.352;9.074;2022-07-23T05:40:40;16.90;99.90
21508;DHT22;10915;54.352;9.074;2022-07-23T05:43:05;16.90;99.90
21508;DHT22;10915;54.352;9.074;2022-07-23T05:45:31;16.80;99.90
21508;DHT22;10915;54.352;9.074;2022-07-23T05:47:56;16.80;99.90
21508;DHT22;10915;54.352;9.074;2022-07-23T05:50:22;16.80;99.90
21508;DHT22;10915;54.352;9.074;2022-07-23T05:52:48;16.80;99.90
21508;DHT22;10915;54.352;9.074;2022-07-23T05:55:13;16.80;99.90
21508;DHT22;10915;54.352;9.074;2022-07-23T05:57:40;16.70;99.90
21508;DHT22;10915;54.352;9.074;2022-07-23T06:00:07;16.70;99.90
21508;DHT22;10915;54.352;9.074;2022-07-23T06:02:33;16.70;99.90
21508;DHT22;10915;54.352;9.074;2022-07-23T06:04:58;16.70;99.90
21508;DHT22;10915;54.352;9.074;2022-07-23T06:07:24;16.70;99.90
21508;DHT22;10915;54.352;9.074;2022-07-23T06:09:50;16.70;99.90
21508;DHT22;10915;54.352;9.074;2022-07-23T06:12:16;16.70;99.90
21508;DHT22;10915;54.352;9.074;2022-07-23T06:14:42;16.70;99.90
21508;DHT22;10915;54.352;9.074;2022-07-23T06:17:08;16.70;99.90
21508;DHT22;10915;54.352;9.074;2022-07-23T06:19:34;16.70;99.90
21508;DHT22;10915;54.352;9.074;2022-07-23T06:21:59;16.70;99.90
21508;DHT22;10915;54.352;9.074;2022-07-23T06:24:25;16.80;99.90
21508;DHT22;10915;54.352;9.074;2022-07-23T06:26:51;16.80;99.90
21508;DHT22;10915;54.352;9.074;2022-07-23T06:29:16;16.80;99.90
21508;DHT22;10915;54.352;9.074;2022-07-23T06:31:42;16.80;99.90
21508;DHT22;10915;54.352;9.074;2022-07-23T06:34:07;16.90;99.90
21508;DHT22;10915;54.352;9.074;2022-07-23T06:36:33;16.90;99.90
21508;DHT22;10915;54.352;9.074;2022-07-23T06:38:59;16.90;99.90
21508;DHT22;10915;54.352;9.074;2022-07-23T06:41:24;16.90;99.90
21508;DHT22;10915;54.352;9.074;2022-07-23T06:43:50;16.90;99.90
21508;DHT22;10915;54.352;9.074;2022-07-23T06:46:15;16.90;99.90
21508;DHT22;10915;54.352;9.074;2022-07-23T06:48:41;16.90;99.90
21508;DHT22;10915;54.352;9.074;2022-07-23T06:51:07;16.90;99.90
21508;DHT22;10915;54.352;9.074;2022-07-23T06:53:32;16.90;99.90
21508;DHT22;10915;54.352;9.074;2022-07-23T06:55:58;16.90;99.90
21508;DHT22;10915;54.352;9.074;2022-07-23T06:58:24;16.90;99.90
21508;DHT22;10915;54.352;9.074;2022-07-23T07:00:49;16.90;99.90
21508;DHT22;10915;54.352;9.074;2022-07-23T07:03:17;16.90;99.90
21508;DHT22;10915;54.352;9.074;2022-07-23T07:05:42;16.90;99.90
21508;DHT22;10915;54.352;9.074;2022-07-23T07:08:08;16.90;99.90
21508;DHT22;10915;54.352;9.074;2022-07-23T07:10:33;16.90;99.90
21508;DHT22;10915;54.352;9.074;2022-07-23T07:12:59;16.90;99.90
21508;DHT22;10915;54.352;9.074;2022-07-23T07:15:25;17.00;99.90
21508;DHT22;10915;54.352;9.074;2022-07-23T07:17:50;17.00;99.90
21508;DHT22;10915;54.352;9.074;2022-07-23T07:20:16;17.00;99.90
21508;DHT22;10915;54.352;9.074;2022-07-23T07:22:42;17.10;99.90
21508;DHT22;10915;54.352;9.074;2022-07-23T07:25:08;17.10;99.90
21508;DHT22;10915;54.352;9.074;2022-07-23T07:27:34;17.10;99.90
21508;DHT22;10915;54.352;9.074;2022-07-23T07:29:59;17.20;99.90
21508;DHT22;10915;54.352;9.074;2022-07-23T07:32:25;17.30;99.90
21508;DHT22;10915;54.352;9.074;2022-07-23T07:34:51;17.40;99.90
21508;DHT22;10915;54.352;9.074;2022-07-23T07:37:17;17.40;99.90
21508;DHT22;10915;54.352;9.074;2022-07-23T07:39:42;17.50;99.90
21508;DHT22;10915;54.352;9.074;2022-07-23T07:42:08;17.50;99.90
21508;DHT22;10915;54.352;9.074;2022-07-23T07:44:33;17.60;99.90
21508;DHT22;10915;54.352;9.074;2022-07-23T07:46:59;17.60;99.90
21508;DHT22;10915;54.352;9.074;2022-07-23T07:49:25;17.60;99.90
21508;DHT22;10915;54.352;9.074;2022-07-23T07:51:50;17.60;99.90
21508;DHT22;10915;54.352;9.074;2022-07-23T07:54:16;17.60;99.90
21508;DHT22;10915;54.352;9.074;2022-07-23T07:56:41;17.60;99.90
21508;DHT22;10915;54.352;9.074;2022-07-23T07:59:07;17.60;99.90
21508;DHT22;10915;54.352;9.074;2022-07-23T08:01:33;17.60;99.90
21508;DHT22;10915;54.352;9.074;2022-07-23T08:03:58;17.70;99.90
21508;DHT22;10915;54.352;9.074;2022-07-23T08:06:24;17.70;99.90
21508;DHT22;10915;54.352;9.074;2022-07-23T08:08:50;17.70;99.90
21508;DHT22;10915;54.352;9.074;2022-07-23T08:11:15;17.80;99.90
21508;DHT22;10915;54.352;9.074;2022-07-23T08:13:41;17.80;99.90
21508;DHT22;10915;54.352;9.074;2022-07-23T08:16:09;17.90;99.90
21508;DHT22;10915;54.352;9.074;2022-07-23T08:18:35;17.90;99.90
21508;DHT22;10915;54.352;9.074;2022-07-23T08:21:01;18.00;99.90
21508;DHT22;10915;54.352;9.074;2022-07-23T08:23:26;18.10;99.90
21508;DHT22;10915;54.352;9.074;2022-07-23T08:25:52;18.20;99.90
21508;DHT22;10915;54.352;9.074;2022-07-23T08:28:18;18.30;99.90
21508;DHT22;10915;54.352;9.074;2022-07-23T08:30:44;18.40;99.90
21508;DHT22;10915;54.352;9.074;2022-07-23T08:33:13;18.50;99.90
21508;DHT22;10915;54.352;9.074;2022-07-23T08:35:41;18.50;99.90
21508;DHT22;10915;54.352;9.074;2022-07-23T08:38:09;18.50;99.90
21508;DHT22;10915;54.352;9.074;2022-07-23T08:40:37;18.50;99.90
21508;DHT22;10915;54.352;9.074;2022-07-23T08:43:09;18.50;99.90
21508;DHT22;10915;54.352;9.074;2022-07-23T08:45:37;18.50;99.90
21508;DHT22;10915;54.352;9.074;2022-07-23T08:48:11;18.40;99.90
21508;DHT22;10915;54.352;9.074;2022-07-23T08:50:37;18.30;99.90
21508;DHT22;10915;54.352;9.074;2022-07-23T08:53:06;18.20;99.90
21508;DHT22;10915;54.352;9.074;2022-07-23T08:55:32;18.10;99.90
21508;DHT22;10915;54.352;9.074;2022-07-23T08:57:58;18.10;99.90
21508;DHT22;10915;54.352;9.074;2022-07-23T09:00:23;18.00;99.90
21508;DHT22;10915;54.352;9.074;2022-07-23T09:02:50;18.00;99.90
21508;DHT22;10915;54.352;9.074;2022-07-23T09:05:17;18.10;99.90
21508;DHT22;10915;54.352;9.074;2022-07-23T09:08:18;18.10;99.90
21508;DHT22;10915;54.352;9.074;2022-07-23T09:13:33;18.10;99.90
21508;DHT22;10915;54.352;9.074;2022-07-23T09:16:11;18.10;99.90
21508;DHT22;10915;54.352;9.074;2022-07-23T09:21:27;18.20;99.90
21508;DHT22;10915;54.352;9.074;2022-07-23T09:29:22;18.30;99.90
21508;DHT22;10915;54.352;9.074;2022-07-23T09:32:00;18.30;99.90
21508;DHT22;10915;54.352;9.074;2022-07-23T09:34:32;18.40;99.90
21508;DHT22;10915;54.352;9.074;2022-07-23T09:37:15;18.50;99.90
21508;DHT22;10915;54.352;9.074;2022-07-23T09:39:42;18.70;99.90
21508;DHT22;10915;54.352;9.074;2022-07-23T09:42:22;18.80;99.90
21508;DHT22;10915;54.352;9.074;2022-07-23T09:44:53;18.80;99.90
21508;DHT22;10915;54.352;9.074;2022-07-23T09:47:19;18.90;99.90
21508;DHT22;10915;54.352;9.074;2022-07-23T09:50:00;18.90;99.90
21508;DHT22;10915;54.352;9.074;2022-07-23T09:52:35;18.90;99.90
21508;DHT22;10915;54.352;9.074;2022-07-23T09:55:04;19.00;99.90
21508;DHT22;10915;54.352;9.074;2022-07-23T09:57:31;19.10;99.90
21508;DHT22;10915;54.352;9.074;2022-07-23T10:00:00;19.10;99.90
21508;DHT22;10915;54.352;9.074;2022-07-23T10:02:26;19.20;99.90
21508;DHT22;10915;54.352;9.074;2022-07-23T10:04:53;19.30;99.90
21508;DHT22;10915;54.352;9.074;2022-07-23T10:07:21;19.50;99.90
21508;DHT22;10915;54.352;9.074;2022-07-23T10:09:49;19.60;99.90
21508;DHT22;10915;54.352;9.074;2022-07-23T10:12:18;19.60;99.90
21508;DHT22;10915;54.352;9.074;2022-07-23T10:15:03;19.70;99.90
21508;DHT22;10915;54.352;9.074;2022-07-23T10:17:31;19.70;99.90
21508;DHT22;10915;54.352;9.074;2022-07-23T10:19:57;19.70;99.90
21508;DHT22;10915;54.352;9.074;2022-07-23T10:22:29;19.80;99.90
21508;DHT22;10915;54.352;9.074;2022-07-23T10:28:06;19.80;99.90
21508;DHT22;10915;54.352;9.074;2022-07-23T10:30:51;19.70;99.90
21508;DHT22;10915;54.352;9.074;2022-07-23T10:33:45;19.70;99.90
21508;DHT22;10915;54.352;9.074;2022-07-23T10:36:40;19.70;99.90
21508;DHT22;10915;54.352;9.074;2022-07-23T10:39:24;19.60;99.90
21508;DHT22;10915;54.352;9.074;2022-07-23T10:41:51;19.60;99.90
21508;DHT22;10915;54.352;9.074;2022-07-23T10:44:20;19.60;99.90
21508;DHT22;10915;54.352;9.074;2022-07-23T10:46:57;19.70;99.90
21508;DHT22;10915;54.352;9.074;2022-07-23T10:49:41;19.80;99.90
21508;DHT22;10915;54.352;9.074;2022-07-23T10:52:26;19.90;99.90
21508;DHT22;10915;54.352;9.074;2022-07-23T10:54:56;20.10;99.90
21508;DHT22;10915;54.352;9.074;2022-07-23T10:57:25;20.10;99.90
21508;DHT22;10915;54.352;9.074;2022-07-23T11:02:28;20.10;99.90
21508;DHT22;10915;54.352;9.074;2022-07-23T11:04:59;20.00;99.90
21508;DHT22;10915;54.352;9.074;2022-07-23T11:07:25;20.00;99.90
21508;DHT22;10915;54.352;9.074;2022-07-23T11:09:51;19.90;99.90
21508;DHT22;10915;54.352;9.074;2022-07-23T11:15:09;19.90;99.90
21508;DHT22;10915;54.352;9.074;2022-07-23T11:20:18;20.00;99.90
21508;DHT22;10915;54.352;9.074;2022-07-23T11:25:11;20.10;99.90
21508;DHT22;10915;54.352;9.074;2022-07-23T11:27:38;20.10;99.90
21508;DHT22;10915;54.352;9.074;2022-07-23T11:30:05;20.20;99.90
21508;DHT22;10915;54.352;9.074;2022-07-23T11:32:35;20.20;99.90
21508;DHT22;10915;54.352;9.074;2022-07-23T11:35:25;20.10;99.90
21508;DHT22;10915;54.352;9.074;2022-07-23T11:37:52;20.10;99.90
21508;DHT22;10915;54.352;9.074;2022-07-23T11:40:24;20.10;99.90
21508;DHT22;10915;54.352;9.074;2022-07-23T11:43:03;20.10;99.90
21508;DHT22;10915;54.352;9.074;2022-07-23T11:45:41;20.20;99.90
21508;DHT22;10915;54.352;9.074;2022-07-23T11:48:09;20.20;99.90
21508;DHT22;10915;54.352;9.074;2022-07-23T11:50:36;20.40;99.90
21508;DHT22;10915;54.352;9.074;2022-07-23T11:53:02;20.50;99.90
21508;DHT22;10915;54.352;9.074;2022-07-23T11:55:30;20.40;99.90
21508;DHT22;10915;54.352;9.074;2022-07-23T11:57:56;20.30;99.90
21508;DHT22;10915;54.352;9.074;2022-07-23T12:00:24;20.10;99.90
21508;DHT22;10915;54.352;9.074;2022-07-23T12:02:52;20.00;99.90
21508;DHT22;10915;54.352;9.074;2022-07-23T12:05:24;19.90;99.90
21508;DHT22;10915;54.352;9.074;2022-07-23T12:07:51;19.80;99.90
21508;DHT22;10915;54.352;9.074;2022-07-23T12:10:18;19.80;99.90
21508;DHT22;10915;54.352;9.074;2022-07-23T12:12:51;19.80;99.90
21508;DHT22;10915;54.352;9.074;2022-07-23T12:15:23;19.90;99.90
21508;DHT22;10915;54.352;9.074;2022-07-23T12:17:51;19.90;99.90
21508;DHT22;10915;54.352;9.074;2022-07-23T12:20:23;19.90;99.90
21508;DHT22;10915;54.352;9.074;2022-07-23T12:22:57;19.90;99.90
21508;DHT22;10915;54.352;9.074;2022-07-23T12:25:36;20.00;99.90
21508;DHT22;10915;54.352;9.074;2022-07-23T12:28:06;20.10;99.90
21508;DHT22;10915;54.352;9.074;2022-07-23T12:33:03;20.20;99.90
21508;DHT22;10915;54.352;9.074;2022-07-23T12:38:08;20.10;99.90
21508;DHT22;10915;54.352;9.074;2022-07-23T12:43:19;20.10;99.90
21508;DHT22;10915;54.352;9.074;2022-07-23T12:51:18;20.30;99.90
21508;DHT22;10915;54.352;9.074;2022-07-23T13:04:19;20.40;99.90
21508;DHT22;10915;54.352;9.074;2022-07-23T13:06:47;20.30;99.90
21508;DHT22;10915;54.352;9.074;2022-07-23T13:09:24;20.20;99.90
21508;DHT22;10915;54.352;9.074;2022-07-23T13:11:52;20.00;99.90
21508;DHT22;10915;54.352;9.074;2022-07-23T13:14:20;20.00;99.90
21508;DHT22;10915;54.352;9.074;2022-07-23T13:16:46;19.90;99.90
21508;DHT22;10915;54.352;9.074;2022-07-23T13:19:12;19.90;99.90
21508;DHT22;10915;54.352;9.074;2022-07-23T13:21:39;20.00;99.90
21508;DHT22;10915;54.352;9.074;2022-07-23T13:24:05;20.00;99.90
21508;DHT22;10915;54.352;9.074;2022-07-23T13:26:31;20.10;99.90
21508;DHT22;10915;54.352;9.074;2022-07-23T13:28:56;20.20;99.90
21508;DHT22;10915;54.352;9.074;2022-07-23T13:31:23;20.30;99.90
21508;DHT22;10915;54.352;9.074;2022-07-23T13:33:48;20.30;99.90
21508;DHT22;10915;54.352;9.074;2022-07-23T13:36:14;20.30;99.90
21508;DHT22;10915;54.352;9.074;2022-07-23T13:38:40;20.40;99.90
21508;DHT22;10915;54.352;9.074;2022-07-23T13:41:06;20.50;99.90
21508;DHT22;10915;54.352;9.074;2022-07-23T13:43:32;20.50;99.90
21508;DHT22;10915;54.352;9.074;2022-07-23T13:45:58;20.40;99.90
21508;DHT22;10915;54.352;9.074;2022-07-23T13:48:24;20.40;99.90
21508;DHT22;10915;54.352;9.074;2022-07-23T13:50:51;20.30;99.90
21508;DHT22;10915;54.352;9.074;2022-07-23T13:53:19;20.30;99.90
21508;DHT22;10915;54.352;9.074;2022-07-23T13:55:46;20.40;99.90
21508;DHT22;10915;54.352;9.074;2022-07-23T13:58:12;20.40;99.90
21508;DHT22;10915;54.352;9.074;2022-07-23T14:00:46;20.40;99.90
21508;DHT22;10915;54.352;9.074;2022-07-23T14:03:12;20.50;99.90
21508;DHT22;10915;54.352;9.074;2022-07-23T14:05:38;20.40;99.90
21508;DHT22;10915;54.352;9.074;2022-07-23T14:08:04;20.50;99.90
21508;DHT22;10915;54.352;9.074;2022-07-23T14:10:31;20.50;99.90
21508;DHT22;10915;54.352;9.074;2022-07-23T14:12:57;20.50;99.90
21508;DHT22;10915;54.352;9.074;2022-07-23T14:15:27;20.50;99.90
21508;DHT22;10915;54.352;9.074;2022-07-23T14:17:54;20.50;99.90
21508;DHT22;10915;54.352;9.074;2022-07-23T14:20:21;20.40;99.90
21508;DHT22;10915;54.352;9.074;2022-07-23T14:22:46;20.40;99.90
21508;DHT22;10915;54.352;9.074;2022-07-23T14:25:12;20.30;99.90
21508;DHT22;10915;54.352;9.074;2022-07-23T14:27:38;20.20;99.90
21508;DHT22;10915;54.352;9.074;2022-07-23T14:30:05;20.10;99.90
21508;DHT22;10915;54.352;9.074;2022-07-23T14:32:31;20.00;99.90
21508;DHT22;10915;54.352;9.074;2022-07-23T14:34:56;20.00;99.90
21508;DHT22;10915;54.352;9.074;2022-07-23T14:37:22;19.90;99.90
21508;DHT22;10915;54.352;9.074;2022-07-23T14:39:48;19.90;99.90
21508;DHT22;10915;54.352;9.074;2022-07-23T14:42:13;19.90;99.90
21508;DHT22;10915;54.352;9.074;2022-07-23T14:44:39;19.90;99.90
21508;DHT22;10915;54.352;9.074;2022-07-23T14:47:05;19.90;99.90
21508;DHT22;10915;54.352;9.074;2022-07-23T14:49:32;19.90;99.90
21508;DHT22;10915;54.352;9.074;2022-07-23T14:51:58;19.90;99.90
21508;DHT22;10915;54.352;9.074;2022-07-23T14:54:24;19.90;99.90
21508;DHT22;10915;54.352;9.074;2022-07-23T14:56:52;19.80;99.90
21508;DHT22;10915;54.352;9.074;2022-07-23T14:59:18;19.90;99.90
21508;DHT22;10915;54.352;9.074;2022-07-23T15:01:44;19.90;99.90
21508;DHT22;10915;54.352;9.074;2022-07-23T15:04:09;20.00;99.90
21508;DHT22;10915;54.352;9.074;2022-07-23T15:06:35;20.00;99.90
21508;DHT22;10915;54.352;9.074;2022-07-23T15:09:01;20.00;99.90
21508;DHT22;10915;54.352;9.074;2022-07-23T15:11:27;19.90;99.90
21508;DHT22;10915;54.352;9.074;2022-07-23T15:13:55;20.00;99.90
21508;DHT22;10915;54.352;9.074;2022-07-23T15:16:21;20.00;99.90
21508;DHT22;10915;54.352;9.074;2022-07-23T15:18:46;20.00;99.90
21508;DHT22;10915;54.352;9.074;2022-07-23T15:21:12;20.00;99.90
21508;DHT22;10915;54.352;9.074;2022-07-23T15:23:38;20.00;99.90
21508;DHT22;10915;54.352;9.074;2022-07-23T15:26:05;19.90;99.90
21508;DHT22;10915;54.352;9.074;2022-07-23T15:28:31;19.90;99.90
21508;DHT22;10915;54.352;9.074;2022-07-23T15:30:57;19.90;99.90
21508;DHT22;10915;54.352;9.074;2022-07-23T15:33:22;20.00;99.90
21508;DHT22;10915;54.352;9.074;2022-07-23T15:35:49;20.00;99.90
21508;DHT22;10915;54.352;9.074;2022-07-23T15:38:15;20.00;99.90
21508;DHT22;10915;54.352;9.074;2022-07-23T15:40:41;20.00;99.90
21508;DHT22;10915;54.352;9.074;2022-07-23T15:43:06;20.10;99.90
21508;DHT22;10915;54.352;9.074;2022-07-23T15:45:32;20.20;99.90
21508;DHT22;10915;54.352;9.074;2022-07-23T15:47:58;20.30;99.90
21508;DHT22;10915;54.352;9.074;2022-07-23T15:50:24;20.30;99.90
21508;DHT22;10915;54.352;9.074;2022-07-23T15:52:50;20.30;99.90
21508;DHT22;10915;54.352;9.074;2022-07-23T15:55:16;20.20;99.90
21508;DHT22;10915;54.352;9.074;2022-07-23T15:57:41;20.30;99.90
21508;DHT22;10915;54.352;9.074;2022-07-23T16:00:08;20.30;99.90
21508;DHT22;10915;54.352;9.074;2022-07-23T16:02:34;20.40;99.90
21508;DHT22;10915;54.352;9.074;2022-07-23T16:05:01;20.30;99.90
21508;DHT22;10915;54.352;9.074;2022-07-23T16:07:26;20.30;99.90
21508;DHT22;10915;54.352;9.074;2022-07-23T16:09:53;20.30;99.90
21508;DHT22;10915;54.352;9.074;2022-07-23T16:12:18;20.30;99.90
21508;DHT22;10915;54.352;9.074;2022-07-23T16:14:44;20.20;99.90
21508;DHT22;10915;54.352;9.074;2022-07-23T16:17:10;20.20;99.90